Time;durP1;ratioP1;P1;durP2;ratioP2;P2;SDS_P1;SDS_P2;PMS_P1;PMS_P2;Temp;Humidity;BMP_temperature;BMP_pressure;BME280_temperature;BME280_humidity;BME280_pressure;Samples;Min_cycle;Max_cycle;Signal;HPM_P1;HPM_P2
2023/06/12 00:00:46;;;;;;;4.55;4.18;;;;;;;;;;5051436;28;40432;-36
2023/06/12 00:03:15;;;;;;;5.22;4.68;;;;;;;;;;5064445;28;42551;-33
2023/06/12 00:05:44;;;;;;;5.05;4.55;;;;;;;;;;5065198;28;44109;-32
2023/06/12 00:08:13;;;;;;;4.97;4.47;;;;;;;;;;5049569;28;41077;-37
2023/06/12 00:10:41;;;;;;;4.88;4.38;;;;;;;;;;5062303;28;45066;-39
2023/06/12 00:13:09;;;;;;;5.75;4.40;;;;;;;;;;5050859;28;40771;-36
2023/06/12 00:15:37;;;;;;;4.93;4.53;;;;;;;;;;5050859;28;42869;-39
2023/06/12 00:18:05;;;;;;;4.97;4.47;;;;;;;;;;5049650;28;43682;-37
2023/06/12 00:20:35;;;;;;;4.88;4.47;;;;;;;;;;5064285;28;40902;-36
2023/06/12 00:23:02;;;;;;;4.80;4.30;;;;;;;;;;5064320;28;42818;-34
2023/06/12 00:25:30;;;;;;;5.22;4.72;;;;;;;;;;5054185;28;42918;-35
2023/06/12 00:27:58;;;;;;;4.40;4.00;;;;;;;;;;5061264;28;40915;-37
2023/06/12 00:30:26;;;;;;;6.20;4.82;;;;;;;;;;5065361;28;43040;-34
2023/06/12 00:32:54;;;;;;;4.35;3.95;;;;;;;;;;5046767;28;43564;-33
2023/06/12 00:35:22;;;;;;;5.70;4.60;;;;;;;;;;5063585;28;43358;-33
2023/06/12 00:37:51;;;;;;;4.93;4.53;;;;;;;;;;5065043;28;43602;-31
2023/06/12 00:40:19;;;;;;;5.25;4.55;;;;;;;;;;5032075;28;39914;-32
2023/06/12 00:42:47;;;;;;;5.00;4.50;;;;;;;;;;5051271;28;42608;-34
2023/06/12 00:45:15;;;;;;;6.15;4.75;;;;;;;;;;5048117;28;43216;-35
2023/06/12 00:47:44;;;;;;;5.22;4.60;;;;;;;;;;5064970;28;40377;-32
2023/06/12 00:50:12;;;;;;;4.70;4.30;;;;;;;;;;5045713;28;41195;-32
2023/06/12 00:52:43;;;;;;;5.40;4.82;;;;;;;;;;5065114;28;43567;-37
2023/06/12 00:55:14;;;;;;;4.40;4.00;;;;;;;;;;5059006;28;42429;-37
2023/06/12 00:57:42;;;;;;;5.03;4.40;;;;;;;;;;5052085;28;44267;-37
2023/06/12 01:00:12;;;;;;;4.80;4.40;;;;;;;;;;5050635;28;41920;-32
2023/06/12 01:02:44;;;;;;;6.30;4.65;;;;;;;;;;5063701;28;42962;-32
2023/06/12 01:05:12;;;;;;;4.70;4.30;;;;;;;;;;5045835;28;43223;-36
2023/06/12 01:07:43;;;;;;;5.03;4.50;;;;;;;;;;5047812;28;40283;-36
2023/06/12 01:10:15;;;;;;;4.70;4.30;;;;;;;;;;5064150;28;43575;-34
2023/06/12 01:12:43;;;;;;;5.50;4.68;;;;;;;;;;5067819;28;43622;-34
2023/06/12 01:15:11;;;;;;;5.07;4.55;;;;;;;;;;5067786;28;40181;-34
2023/06/12 01:17:40;;;;;;;4.95;4.53;;;;;;;;;;5034087;28;42260;-37
2023/06/12 01:20:11;;;;;;;4.90;4.40;;;;;;;;;;5049625;28;39090;-35
2023/06/12 01:22:50;;;;;;;6.10;4.85;;;;;;;;;;5065024;28;42837;-36
2023/06/12 01:25:32;;;;;;;4.60;4.20;;;;;;;;;;5056696;28;44462;-36
2023/06/12 01:28:01;;;;;;;5.05;4.65;;;;;;;;;;5048272;28;40755;-36
2023/06/12 01:30:43;;;;;;;5.68;4.32;;;;;;;;;;5049393;28;42918;-34
2023/06/12 01:33:14;;;;;;;4.97;4.57;;;;;;;;;;5048568;28;42040;-34
2023/06/12 01:35:43;;;;;;;6.00;4.38;;;;;;;;;;5068096;28;42019;-36
2023/06/12 01:38:13;;;;;;;5.72;5.18;;;;;;;;;;5034010;28;42472;-32
2023/06/12 01:40:41;;;;;;;4.63;4.22;;;;;;;;;;5050042;28;42285;-36
2023/06/12 01:43:09;;;;;;;5.38;4.85;;;;;;;;;;5036166;28;41599;-35
2023/06/12 01:45:38;;;;;;;5.38;4.88;;;;;;;;;;5039015;28;42144;-35
2023/06/12 01:48:07;;;;;;;5.40;4.80;;;;;;;;;;5067446;28;40531;-32
2023/06/12 01:50:36;;;;;;;5.18;4.70;;;;;;;;;;5048731;28;42248;-36
2023/06/12 01:53:05;;;;;;;4.72;4.30;;;;;;;;;;5065740;28;45148;-37
2023/06/12 01:55:33;;;;;;;5.65;5.10;;;;;;;;;;5067134;28;39669;-36
2023/06/12 01:58:01;;;;;;;5.88;4.93;;;;;;;;;;5048067;28;41522;-33
2023/06/12 02:00:48;;;;;;;5.10;4.60;;;;;;;;;;5048467;28;44905;-37
2023/06/12 02:03:17;;;;;;;5.18;4.70;;;;;;;;;;5034172;28;39124;-35
2023/06/12 02:05:46;;;;;;;5.18;4.68;;;;;;;;;;5068133;28;43300;-36
2023/06/12 02:08:14;;;;;;;5.28;4.78;;;;;;;;;;5066225;28;40138;-32
2023/06/12 02:10:42;;;;;;;4.90;4.50;;;;;;;;;;5049312;28;41745;-33
2023/06/12 02:13:10;;;;;;;4.78;4.30;;;;;;;;;;5052578;28;43380;-37
2023/06/12 02:15:39;;;;;;;5.05;4.63;;;;;;;;;;5046348;28;38749;-36
2023/06/12 02:18:07;;;;;;;5.40;4.90;;;;;;;;;;5055462;28;42660;-34
2023/06/12 02:20:35;;;;;;;4.72;4.32;;;;;;;;;;5047480;28;42823;-34
2023/06/12 02:23:05;;;;;;;4.72;4.30;;;;;;;;;;5067144;28;41076;-38
2023/06/12 02:25:33;;;;;;;4.78;4.38;;;;;;;;;;5048461;28;42139;-36
2023/06/12 02:28:01;;;;;;;5.20;4.70;;;;;;;;;;5047187;28;39100;-33
2023/06/12 02:30:29;;;;;;;4.88;4.28;;;;;;;;;;5066701;28;43380;-36
2023/06/12 02:32:58;;;;;;;5.05;4.55;;;;;;;;;;5048369;28;41990;-33
2023/06/12 02:35:26;;;;;;;5.95;5.00;;;;;;;;;;5047794;28;38833;-39
2023/06/12 02:37:54;;;;;;;5.25;4.75;;;;;;;;;;5066911;28;43482;-35
2023/06/12 02:40:23;;;;;;;4.43;4.03;;;;;;;;;;5066291;28;43078;-33
2023/06/12 02:42:51;;;;;;;5.72;5.13;;;;;;;;;;5065342;28;40483;-37
2023/06/12 02:45:21;;;;;;;4.95;4.55;;;;;;;;;;5048366;28;41900;-33
2023/06/12 02:47:49;;;;;;;5.20;4.70;;;;;;;;;;5047139;28;38941;-37
2023/06/12 02:50:19;;;;;;;5.35;4.85;;;;;;;;;;5060529;28;42252;-35
2023/06/12 02:52:52;;;;;;;5.38;4.88;;;;;;;;;;5042017;28;41950;-35
2023/06/12 02:55:20;;;;;;;6.45;4.70;;;;;;;;;;5065138;28;40376;-34
2023/06/12 02:57:50;;;;;;;5.32;4.80;;;;;;;;;;5047798;28;41783;-35
2023/06/12 03:00:18;;;;;;;5.50;5.00;;;;;;;;;;5047102;28;43326;-35
2023/06/12 03:02:47;;;;;;;5.45;4.65;;;;;;;;;;5047980;28;39116;-37
2023/06/12 03:05:16;;;;;;;5.20;4.70;;;;;;;;;;5046907;28;42229;-36
2023/06/12 03:07:44;;;;;;;5.60;5.10;;;;;;;;;;5048310;28;43406;-39
2023/06/12 03:10:16;;;;;;;5.70;4.78;;;;;;;;;;5046572;28;42121;-39
2023/06/12 03:12:44;;;;;;;5.55;4.95;;;;;;;;;;5047352;28;42065;-34
2023/06/12 03:15:14;;;;;;;6.30;4.80;;;;;;;;;;5047556;28;40091;-33
2023/06/12 03:17:42;;;;;;;5.35;4.85;;;;;;;;;;5037485;28;42017;-37
2023/06/12 03:20:11;;;;;;;5.40;4.90;;;;;;;;;;5037752;28;42691;-36
2023/06/12 03:22:39;;;;;;;5.95;4.70;;;;;;;;;;5047698;28;40353;-34
2023/06/12 03:25:07;;;;;;;5.13;4.65;;;;;;;;;;5047000;28;41570;-35
2023/06/12 03:27:36;;;;;;;6.00;5.00;;;;;;;;;;5046796;28;42156;-35
2023/06/12 03:30:05;;;;;;;6.80;4.85;;;;;;;;;;5057654;28;40513;-34
2023/06/12 03:32:34;;;;;;;5.50;5.03;;;;;;;;;;5059461;28;44747;-35
2023/06/12 03:35:04;;;;;;;5.53;5.03;;;;;;;;;;5047136;28;38869;-35
2023/06/12 03:37:34;;;;;;;5.28;4.85;;;;;;;;;;5046158;28;41733;-34
2023/06/12 03:40:05;;;;;;;5.35;4.85;;;;;;;;;;5047285;28;44132;-37
2023/06/12 03:42:37;;;;;;;5.32;4.82;;;;;;;;;;5047812;28;38097;-33
2023/06/12 03:45:06;;;;;;;6.30;5.10;;;;;;;;;;5046051;28;42126;-35
2023/06/12 03:47:36;;;;;;;5.32;4.82;;;;;;;;;;5046345;28;43166;-36
2023/06/12 03:50:10;;;;;;;7.05;4.40;;;;;;;;;;5046838;28;39734;-37
2023/06/12 03:52:39;;;;;;;5.82;5.18;;;;;;;;;;5047344;28;42679;-37
2023/06/12 03:55:07;;;;;;;6.00;5.15;;;;;;;;;;5065332;28;40504;-37
2023/06/12 03:57:36;;;;;;;5.47;4.80;;;;;;;;;;5046741;28;41204;-35
2023/06/12 04:00:05;;;;;;;5.22;4.68;;;;;;;;;;5046564;28;42802;-35
2023/06/12 04:02:44;;;;;;;5.22;4.72;;;;;;;;;;5065719;28;41115;-38
2023/06/12 04:05:20;;;;;;;5.57;5.07;;;;;;;;;;5047052;28;41364;-33
2023/06/12 04:07:49;;;;;;;5.43;4.93;;;;;;;;;;5046771;28;43192;-36
2023/06/12 04:10:18;;;;;;;5.55;5.05;;;;;;;;;;5045614;28;38787;-36
2023/06/12 04:12:46;;;;;;;5.40;4.90;;;;;;;;;;5045968;28;42326;-38
2023/06/12 04:15:14;;;;;;;5.32;4.70;;;;;;;;;;5046518;28;31788;-35
2023/06/12 04:17:42;;;;;;;5.45;4.95;;;;;;;;;;5042294;28;41721;-34
2023/06/12 04:20:13;;;;;;;6.55;4.95;;;;;;;;;;5063991;28;44504;-32
2023/06/12 04:22:42;;;;;;;5.82;5.22;;;;;;;;;;5046935;28;39183;-35
2023/06/12 04:25:10;;;;;;;5.32;4.75;;;;;;;;;;5036749;28;41319;-37
2023/06/12 04:27:42;;;;;;;5.35;4.70;;;;;;;;;;5060038;28;44443;-33
2023/06/12 04:30:15;;;;;;;5.18;4.68;;;;;;;;;;5046567;28;42140;-35
2023/06/12 04:32:43;;;;;;;5.95;5.18;;;;;;;;;;5046723;28;41330;-34
2023/06/12 04:35:12;;;;;;;6.18;4.85;;;;;;;;;;5064884;28;43641;-34
2023/06/12 04:37:41;;;;;;;5.68;5.18;;;;;;;;;;5037243;28;42822;-34
2023/06/12 04:40:11;;;;;;;5.78;5.28;;;;;;;;;;5048744;28;44516;-35
2023/06/12 04:42:41;;;;;;;5.70;5.20;;;;;;;;;;5025140;28;38456;-37
2023/06/12 04:45:12;;;;;;;6.00;5.30;;;;;;;;;;5026552;28;42319;-36
2023/06/12 04:47:42;;;;;;;5.65;5.15;;;;;;;;;;5026312;28;43330;-35
2023/06/12 04:50:10;;;;;;;6.47;4.75;;;;;;;;;;5031212;28;38874;-36
2023/06/12 04:52:40;;;;;;;5.85;4.63;;;;;;;;;;5043231;28;43644;-35
2023/06/12 04:55:09;;;;;;;5.38;4.88;;;;;;;;;;5025315;28;41915;-36
2023/06/12 04:57:39;;;;;;;4.50;4.10;;;;;;;;;;5044695;28;40989;-36
2023/06/12 05:00:11;;;;;;;6.32;5.15;;;;;;;;;;5026184;28;42093;-34
2023/06/12 05:02:40;;;;;;;5.70;4.82;;;;;;;;;;5035679;28;39306;-36
2023/06/12 05:05:08;;;;;;;5.68;5.18;;;;;;;;;;5029226;28;41845;-35
2023/06/12 05:07:36;;;;;;;6.88;5.35;;;;;;;;;;5049459;28;43663;-34
2023/06/12 05:10:06;;;;;;;6.00;5.50;;;;;;;;;;5044109;28;40181;-32
2023/06/12 05:12:34;;;;;;;5.78;5.20;;;;;;;;;;5044407;28;42688;-37
2023/06/12 05:15:04;;;;;;;6.53;5.85;;;;;;;;;;5026009;28;42711;-34
2023/06/12 05:17:32;;;;;;;7.75;5.80;;;;;;;;;;5032713;28;38819;-33
2023/06/12 05:20:03;;;;;;;6.53;5.90;;;;;;;;;;5046745;28;41139;-35
2023/06/12 05:22:31;;;;;;;8.27;6.07;;;;;;;;;;5031065;28;39109;-39
2023/06/12 05:24:59;;;;;;;8.57;6.40;;;;;;;;;;5045822;28;41263;-34
2023/06/12 05:27:28;;;;;;;8.88;6.07;;;;;;;;;;5051216;28;44438;-34
2023/06/12 05:29:56;;;;;;;7.13;6.43;;;;;;;;;;5025363;28;40974;-37
2023/06/12 05:32:24;;;;;;;13.50;6.80;;;;;;;;;;5029555;28;41508;-36
2023/06/12 05:34:52;;;;;;;10.65;6.38;;;;;;;;;;5043996;28;43096;-34
2023/06/12 05:37:20;;;;;;;8.57;6.30;;;;;;;;;;5046179;28;40253;-36
2023/06/12 05:39:48;;;;;;;6.28;5.68;;;;;;;;;;5055405;28;42949;-37
2023/06/12 05:42:16;;;;;;;6.72;5.82;;;;;;;;;;5048180;28;43825;-33
2023/06/12 05:44:46;;;;;;;11.00;5.65;;;;;;;;;;5025187;28;41562;-36
2023/06/12 05:47:16;;;;;;;7.55;6.13;;;;;;;;;;5028111;28;43040;-36
2023/06/12 05:49:44;;;;;;;9.25;5.70;;;;;;;;;;5038108;28;40139;-35
2023/06/12 05:52:13;;;;;;;6.07;5.20;;;;;;;;;;5033226;28;41337;-37
2023/06/12 05:54:43;;;;;;;7.18;5.88;;;;;;;;;;5034599;28;41994;-35
2023/06/12 05:57:11;;;;;;;7.25;6.10;;;;;;;;;;5052738;28;41284;-33
2023/06/12 05:59:40;;;;;;;7.05;5.22;;;;;;;;;;5047764;28;41152;-34
2023/06/12 06:02:09;;;;;;;7.72;5.95;;;;;;;;;;5043016;28;41922;-36
2023/06/12 06:04:38;;;;;;;8.43;6.10;;;;;;;;;;5029475;28;39409;-35
2023/06/12 06:07:11;;;;;;;8.85;5.60;;;;;;;;;;5027952;28;43221;-39
2023/06/12 06:09:45;;;;;;;7.00;6.15;;;;;;;;;;5032351;28;40009;-35
2023/06/12 06:12:13;;;;;;;9.60;5.75;;;;;;;;;;5028040;28;41609;-34
2023/06/12 06:14:41;;;;;;;7.40;6.03;;;;;;;;;;5055748;28;44276;-33
2023/06/12 06:17:10;;;;;;;10.25;6.32;;;;;;;;;;5059447;28;41340;-34
2023/06/12 06:19:38;;;;;;;8.82;6.28;;;;;;;;;;5052264;28;43021;-38
2023/06/12 06:22:07;;;;;;;11.43;6.68;;;;;;;;;;5046902;28;41972;-34
2023/06/12 06:24:35;;;;;;;13.38;6.70;;;;;;;;;;5043268;28;39090;-39
2023/06/12 06:27:06;;;;;;;7.38;5.80;;;;;;;;;;5047483;28;41905;-37
2023/06/12 06:29:34;;;;;;;7.97;6.47;;;;;;;;;;5048782;28;40272;-32
2023/06/12 06:32:03;;;;;;;9.65;6.07;;;;;;;;;;5048604;28;43380;-33
2023/06/12 06:34:37;;;;;;;7.28;5.97;;;;;;;;;;5065723;28;43216;-35
2023/06/12 06:37:04;;;;;;;6.55;5.72;;;;;;;;;;5066540;28;41435;-36
2023/06/12 06:39:32;;;;;;;10.68;6.30;;;;;;;;;;5066922;28;43365;-37
2023/06/12 06:42:00;;;;;;;11.15;5.97;;;;;;;;;;5047149;28;42275;-31
2023/06/12 06:44:36;;;;;;;9.07;6.57;;;;;;;;;;5048577;28;40383;-34
2023/06/12 06:47:04;;;;;;;12.00;6.40;;;;;;;;;;5067469;28;42290;-28
2023/06/12 06:49:32;;;;;;;12.27;6.20;;;;;;;;;;5047196;28;40636;-29
2023/06/12 06:52:03;;;;;;;11.25;6.90;;;;;;;;;;5048341;28;42445;-27
2023/06/12 06:54:31;;;;;;;7.63;6.15;;;;;;;;;;5047463;28;42224;-28
2023/06/12 06:57:00;;;;;;;8.68;6.28;;;;;;;;;;5048368;28;38790;-27
2023/06/12 06:59:28;;;;;;;10.13;6.22;;;;;;;;;;5066991;28;42827;-28
2023/06/12 07:01:56;;;;;;;11.48;6.60;;;;;;;;;;5048027;28;42050;-30
2023/06/12 07:04:24;;;;;;;8.30;6.55;;;;;;;;;;5047436;28;39237;-27
2023/06/12 07:06:52;;;;;;;11.73;6.63;;;;;;;;;;5048452;28;42382;-28
2023/06/12 07:09:24;;;;;;;17.83;6.82;;;;;;;;;;5047353;28;42383;-28
2023/06/12 07:11:52;;;;;;;9.45;6.30;;;;;;;;;;5047551;28;41488;-28
2023/06/12 07:14:20;;;;;;;10.25;6.38;;;;;;;;;;5047402;28;43121;-34
2023/06/12 07:16:49;;;;;;;10.63;6.75;;;;;;;;;;5031368;28;39163;-32
2023/06/12 07:19:17;;;;;;;9.05;6.28;;;;;;;;;;5040175;28;42801;-29
2023/06/12 07:21:45;;;;;;;8.43;6.30;;;;;;;;;;5027988;28;42771;-29
2023/06/12 07:24:17;;;;;;;9.95;6.32;;;;;;;;;;5051856;28;42060;-28
2023/06/12 07:26:47;;;;;;;8.13;6.43;;;;;;;;;;5043246;28;42719;-28
2023/06/12 07:29:15;;;;;;;9.52;6.47;;;;;;;;;;5027123;28;42413;-28
2023/06/12 07:31:42;;;;;;;8.10;6.82;;;;;;;;;;5028342;28;39392;-29
2023/06/12 07:34:11;;;;;;;12.85;6.72;;;;;;;;;;5033291;28;42141;-28
2023/06/12 07:36:39;;;;;;;9.40;6.50;;;;;;;;;;5026582;28;39358;-28
2023/06/12 07:39:07;;;;;;;7.82;6.40;;;;;;;;;;5027832;28;41455;-27
2023/06/12 07:41:39;;;;;;;10.18;6.78;;;;;;;;;;5027165;28;43640;-28
2023/06/12 07:44:08;;;;;;;8.05;6.70;;;;;;;;;;5027970;28;39451;-28
2023/06/12 07:46:36;;;;;;;8.77;6.50;;;;;;;;;;5056941;28;43106;-28
2023/06/12 07:49:05;;;;;;;7.20;6.47;;;;;;;;;;5037145;28;42110;-29
2023/06/12 07:51:33;;;;;;;12.38;6.63;;;;;;;;;;5038065;28;40103;-29
2023/06/12 07:54:02;;;;;;;9.45;6.85;;;;;;;;;;5044683;28;42434;-29
2023/06/12 07:56:32;;;;;;;10.52;6.75;;;;;;;;;;5033440;28;39453;-33
2023/06/12 07:59:05;;;;;;;6.53;5.68;;;;;;;;;;5032753;28;42263;-28
2023/06/12 08:01:36;;;;;;;7.50;6.57;;;;;;;;;;5040076;28;42275;-32
2023/06/12 08:04:06;;;;;;;9.43;5.97;;;;;;;;;;5044904;28;41816;-28
2023/06/12 08:06:34;;;;;;;7.68;6.30;;;;;;;;;;5050641;28;43470;-29
2023/06/12 08:09:03;;;;;;;7.18;6.30;;;;;;;;;;5045022;28;42280;-28
2023/06/12 08:11:31;;;;;;;6.70;6.00;;;;;;;;;;5040270;28;39714;-36
2023/06/12 08:13:59;;;;;;;7.05;6.32;;;;;;;;;;5058099;28;43369;-29
2023/06/12 08:16:30;;;;;;;8.63;6.18;;;;;;;;;;5034742;28;43515;-28
2023/06/12 08:18:59;;;;;;;11.43;6.60;;;;;;;;;;5061722;28;42694;-28
2023/06/12 08:21:31;;;;;;;8.35;6.38;;;;;;;;;;5046501;28;42617;-30
2023/06/12 08:23:59;;;;;;;9.07;6.40;;;;;;;;;;5064887;28;41227;-28
2023/06/12 08:26:28;;;;;;;11.38;6.78;;;;;;;;;;5056492;28;43683;-29
2023/06/12 08:28:57;;;;;;;8.25;6.78;;;;;;;;;;5038919;28;42070;-28
2023/06/12 08:31:30;;;;;;;7.13;6.03;;;;;;;;;;5029454;28;38921;-27
2023/06/12 08:33:59;;;;;;;7.53;5.65;;;;;;;;;;5045692;28;43751;-31
2023/06/12 08:36:28;;;;;;;6.30;5.70;;;;;;;;;;5029786;28;43240;-28
2023/06/12 08:38:56;;;;;;;7.75;5.95;;;;;;;;;;5037267;28;41912;-30
2023/06/12 08:41:24;;;;;;;6.95;6.30;;;;;;;;;;5037794;28;42384;-31
2023/06/12 08:43:52;;;;;;;6.45;5.85;;;;;;;;;;5027349;28;39203;-28
2023/06/12 08:46:23;;;;;;;6.05;5.55;;;;;;;;;;5039315;28;41922;-28
2023/06/12 08:48:51;;;;;;;7.18;5.88;;;;;;;;;;5043337;28;44165;-29
2023/06/12 08:51:20;;;;;;;6.00;5.50;;;;;;;;;;5043969;28;41156;-28
2023/06/12 08:53:48;;;;;;;6.60;5.97;;;;;;;;;;5026748;28;40983;-31
2023/06/12 08:56:16;;;;;;;7.95;5.78;;;;;;;;;;5057852;28;43453;-28
2023/06/12 08:58:44;;;;;;;6.93;6.22;;;;;;;;;;5045687;28;40337;-30
2023/06/12 09:01:14;;;;;;;6.70;6.03;;;;;;;;;;5043736;28;44381;-28
2023/06/12 09:03:43;;;;;;;7.13;6.18;;;;;;;;;;5047776;28;41942;-30
2023/06/12 09:06:11;;;;;;;7.65;6.78;;;;;;;;;;5052147;28;42321;-29
2023/06/12 09:08:41;;;;;;;5.97;5.45;;;;;;;;;;5042972;28;44134;-31
2023/06/12 09:11:09;;;;;;;6.03;5.43;;;;;;;;;;5044079;28;40729;-28
2023/06/12 09:13:41;;;;;;;6.60;6.00;;;;;;;;;;5043604;28;42117;-30
2023/06/12 09:16:12;;;;;;;7.30;6.00;;;;;;;;;;5059285;28;43774;-28
2023/06/12 09:18:50;;;;;;;6.55;5.90;;;;;;;;;;5063895;28;40378;-29
2023/06/12 09:21:19;;;;;;;6.80;6.20;;;;;;;;;;5051382;28;43430;-28
2023/06/12 09:23:50;;;;;;;7.18;6.47;;;;;;;;;;5042988;28;41572;-28
2023/06/12 09:26:19;;;;;;;5.82;5.28;;;;;;;;;;5049189;28;43630;-33
2023/06/12 09:28:47;;;;;;;6.45;5.85;;;;;;;;;;5046231;28;44106;-32
2023/06/12 09:31:15;;;;;;;8.05;6.38;;;;;;;;;;5054543;28;40934;-29
2023/06/12 09:33:44;;;;;;;6.60;5.65;;;;;;;;;;5047344;28;42576;-29
2023/06/12 09:36:13;;;;;;;6.25;5.65;;;;;;;;;;5051751;28;43391;-29
2023/06/12 09:38:41;;;;;;;6.93;5.90;;;;;;;;;;5047044;28;40444;-29
2023/06/12 09:41:10;;;;;;;8.57;5.88;;;;;;;;;;5049851;28;43932;-30
2023/06/12 09:43:38;;;;;;;8.90;6.55;;;;;;;;;;5051655;28;43517;-29
2023/06/12 09:46:08;;;;;;;7.13;6.30;;;;;;;;;;5044881;28;42178;-29
2023/06/12 09:48:37;;;;;;;7.07;6.47;;;;;;;;;;5047885;28;44325;-29
2023/06/12 09:51:05;;;;;;;6.20;5.60;;;;;;;;;;5046495;28;40700;-29
2023/06/12 09:53:36;;;;;;;7.05;5.95;;;;;;;;;;5047198;28;42651;-29
2023/06/12 09:56:07;;;;;;;6.00;5.50;;;;;;;;;;5048222;28;44003;-30
2023/06/12 09:58:37;;;;;;;6.57;5.75;;;;;;;;;;5045743;28;40864;-28
2023/06/12 10:01:06;;;;;;;6.00;5.40;;;;;;;;;;5049817;28;43213;-30
2023/06/12 10:03:38;;;;;;;7.15;6.45;;;;;;;;;;5045628;28;44442;-29
2023/06/12 10:06:07;;;;;;;8.35;6.32;;;;;;;;;;5046935;28;40398;-29
2023/06/12 10:08:35;;;;;;;7.43;5.90;;;;;;;;;;5058678;28;43206;-30
2023/06/12 10:11:03;;;;;;;6.68;5.97;;;;;;;;;;5054576;28;40490;-32
2023/06/12 10:13:31;;;;;;;6.95;6.35;;;;;;;;;;5045915;28;41493;-29
2023/06/12 10:16:00;;;;;;;6.50;5.72;;;;;;;;;;5058740;28;42878;-28
2023/06/12 10:18:29;;;;;;;6.68;5.97;;;;;;;;;;5056630;28;42426;-29
2023/06/12 10:20:57;;;;;;;6.72;6.13;;;;;;;;;;5053107;28;43694;-29
2023/06/12 10:23:25;;;;;;;9.18;6.38;;;;;;;;;;5052812;28;44200;-28
2023/06/12 10:25:52;;;;;;;6.60;6.00;;;;;;;;;;5053930;28;41681;-29
2023/06/12 10:28:20;;;;;;;7.20;5.93;;;;;;;;;;5049484;28;42628;-31
2023/06/12 10:31:07;;;;;;;8.40;6.20;;;;;;;;;;5032902;28;39569;-30
2023/06/12 10:33:36;;;;;;;9.95;5.90;;;;;;;;;;5042986;28;44037;-28
2023/06/12 10:36:09;;;;;;;9.25;6.38;;;;;;;;;;5046101;28;44561;-31
2023/06/12 10:38:43;;;;;;;9.98;6.35;;;;;;;;;;5043251;28;40569;-30
2023/06/12 10:41:11;;;;;;;9.23;6.05;;;;;;;;;;5042397;28;42539;-29
2023/06/12 10:43:39;;;;;;;8.48;6.25;;;;;;;;;;5047950;28;44136;-28
2023/06/12 10:46:41;;;;;;;6.97;6.22;;;;;;;;;;5044950;28;40904;-29
2023/06/12 10:49:13;;;;;;;7.15;6.15;;;;;;;;;;5054548;28;43595;-29
2023/06/12 10:51:47;;;;;;;13.45;6.47;;;;;;;;;;5061610;28;42623;-28
2023/06/12 10:54:15;;;;;;;12.88;6.63;;;;;;;;;;5046410;28;42932;-28
2023/06/12 10:56:56;;;;;;;8.10;6.18;;;;;;;;;;5050124;28;43204;-29
2023/06/12 10:59:30;;;;;;;14.30;6.65;;;;;;;;;;5045361;28;40581;-30
2023/06/12 11:01:58;;;;;;;17.02;6.45;;;;;;;;;;5045294;28;43274;-29
2023/06/12 11:04:29;;;;;;;11.38;6.05;;;;;;;;;;5051824;28;44515;-29
2023/06/12 11:06:57;;;;;;;17.42;6.45;;;;;;;;;;5035488;28;39786;-28
2023/06/12 11:09:25;;;;;;;15.65;6.50;;;;;;;;;;5050209;28;42419;-29
2023/06/12 11:11:53;;;;;;;13.25;6.20;;;;;;;;;;5056326;28;43259;-29
2023/06/12 11:14:25;;;;;;;15.98;6.45;;;;;;;;;;5050071;28;43415;-29
2023/06/12 11:16:57;;;;;;;12.35;6.10;;;;;;;;;;5045632;28;42989;-29
2023/06/12 11:19:26;;;;;;;8.00;6.15;;;;;;;;;;5049668;28;40617;-29
2023/06/12 11:21:56;;;;;;;7.00;5.70;;;;;;;;;;5045455;28;43872;-25
2023/06/12 11:24:24;;;;;;;9.55;6.20;;;;;;;;;;5059951;28;45151;-29
2023/06/12 11:26:52;;;;;;;9.48;6.40;;;;;;;;;;5060782;28;41395;-24
2023/06/12 11:29:21;;;;;;;12.98;6.05;;;;;;;;;;5064244;28;43593;-25
2023/06/12 11:31:50;;;;;;;6.75;6.10;;;;;;;;;;5052137;28;43432;-24
2023/06/12 11:34:18;;;;;;;7.93;6.40;;;;;;;;;;5065481;28;41823;-27
2023/06/12 11:36:46;;;;;;;7.57;5.55;;;;;;;;;;5065131;28;43083;-24
2023/06/12 11:39:18;;;;;;;6.78;6.05;;;;;;;;;;5065795;28;41082;-24
2023/06/12 11:41:49;;;;;;;9.52;6.63;;;;;;;;;;5065594;28;43804;-24
2023/06/12 11:44:17;;;;;;;8.68;6.45;;;;;;;;;;5063576;28;44419;-24
2023/06/12 11:46:45;;;;;;;9.98;6.85;;;;;;;;;;5066180;28;40329;-23
2023/06/12 11:49:13;;;;;;;9.52;6.88;;;;;;;;;;5065834;28;43619;-25
2023/06/12 11:51:42;;;;;;;10.45;7.38;;;;;;;;;;5064810;28;43892;-24
2023/06/12 11:54:11;;;;;;;7.65;6.90;;;;;;;;;;5055046;28;41189;-24
2023/06/12 11:56:43;;;;;;;15.15;7.45;;;;;;;;;;5050552;28;43385;-24
2023/06/12 11:59:15;;;;;;;8.00;6.80;;;;;;;;;;5046192;28;41402;-25
2023/06/12 12:01:45;;;;;;;8.15;7.35;;;;;;;;;;5051277;28;42673;-25
2023/06/12 12:04:16;;;;;;;8.93;7.28;;;;;;;;;;5045146;28;43625;-24
2023/06/12 12:06:50;;;;;;;8.70;7.90;;;;;;;;;;5044354;28;40088;-24
2023/06/12 12:09:23;;;;;;;8.25;7.45;;;;;;;;;;5049387;28;43614;-25
2023/06/12 12:11:52;;;;;;;9.00;7.82;;;;;;;;;;5041377;28;43574;-25
2023/06/12 12:14:20;;;;;;;8.95;7.70;;;;;;;;;;5042796;28;40478;-25
2023/06/12 12:16:48;;;;;;;9.95;7.32;;;;;;;;;;5044948;28;42448;-25
2023/06/12 12:19:17;;;;;;;9.48;8.45;;;;;;;;;;5055631;28;43621;-24
2023/06/12 12:21:45;;;;;;;8.68;7.72;;;;;;;;;;5048007;28;42646;-25
2023/06/12 12:24:13;;;;;;;7.30;6.60;;;;;;;;;;5051446;28;44253;-24
2023/06/12 12:26:42;;;;;;;8.93;8.00;;;;;;;;;;5053981;28;40212;-24
2023/06/12 12:29:12;;;;;;;8.80;7.75;;;;;;;;;;5049315;28;42589;-24
2023/06/12 12:31:40;;;;;;;8.07;7.22;;;;;;;;;;5044870;28;43465;-25
2023/06/12 12:34:11;;;;;;;8.50;7.55;;;;;;;;;;5055659;28;41440;-25
2023/06/12 12:36:39;;;;;;;8.35;7.53;;;;;;;;;;5058894;28;42661;-32
2023/06/12 12:39:07;;;;;;;9.05;7.30;;;;;;;;;;5051947;28;43153;-22
2023/06/12 12:41:35;;;;;;;8.10;7.38;;;;;;;;;;5047104;28;40732;-23
2023/06/12 12:44:03;;;;;;;8.90;7.05;;;;;;;;;;5053012;28;43875;-23
2023/06/12 12:46:33;;;;;;;8.20;7.40;;;;;;;;;;5042916;28;39774;-23
2023/06/12 12:49:01;;;;;;;8.90;7.88;;;;;;;;;;5050904;28;42493;-24
2023/06/12 12:51:29;;;;;;;7.30;6.70;;;;;;;;;;5047748;28;43089;-23
2023/06/12 12:53:57;;;;;;;9.50;7.70;;;;;;;;;;5062153;28;40234;-25
2023/06/12 12:56:25;;;;;;;7.70;7.00;;;;;;;;;;5047649;28;42271;-24
2023/06/12 12:58:53;;;;;;;7.72;6.88;;;;;;;;;;5055376;28;43216;-23
2023/06/12 13:01:21;;;;;;;7.72;7.03;;;;;;;;;;5045000;28;40230;-23
2023/06/12 13:03:53;;;;;;;8.68;7.20;;;;;;;;;;5045971;28;44088;-23
2023/06/12 13:06:21;;;;;;;9.10;6.95;;;;;;;;;;5046646;28;40098;-22
2023/06/12 13:08:49;;;;;;;8.98;7.15;;;;;;;;;;5051924;28;43067;-24
2023/06/12 13:11:17;;;;;;;11.88;6.55;;;;;;;;;;5046937;28;44016;-22
2023/06/12 13:13:45;;;;;;;8.38;6.95;;;;;;;;;;5071508;28;42130;-25
2023/06/12 13:16:13;;;;;;;9.75;6.93;;;;;;;;;;5058276;28;43291;-26
2023/06/12 13:18:41;;;;;;;9.85;6.82;;;;;;;;;;5074344;28;43895;-24
2023/06/12 13:21:13;;;;;;;7.72;7.03;;;;;;;;;;5059756;28;39778;-25
2023/06/12 13:23:41;;;;;;;7.93;7.13;;;;;;;;;;5067092;28;43449;-25
2023/06/12 13:26:10;;;;;;;7.82;6.85;;;;;;;;;;5063774;28;40902;-25
2023/06/12 13:28:38;;;;;;;9.80;6.53;;;;;;;;;;5065346;28;43021;-33
2023/06/12 13:31:06;;;;;;;7.05;6.45;;;;;;;;;;5059818;28;45052;-25
2023/06/12 13:33:34;;;;;;;7.47;6.10;;;;;;;;;;5056730;28;39964;-25
2023/06/12 13:36:02;;;;;;;9.85;6.47;;;;;;;;;;5062811;28;42497;-25
2023/06/12 13:38:32;;;;;;;8.55;6.35;;;;;;;;;;5055968;28;44151;-26
2023/06/12 13:41:01;;;;;;;6.80;6.15;;;;;;;;;;5065394;28;40599;-25
2023/06/12 13:43:29;;;;;;;7.55;6.85;;;;;;;;;;5055854;28;43472;-25
2023/06/12 13:45:58;;;;;;;7.45;6.60;;;;;;;;;;5057866;28;43410;-25
2023/06/12 13:48:27;;;;;;;7.25;6.55;;;;;;;;;;5058048;28;42804;-25
2023/06/12 13:50:54;;;;;;;6.90;6.30;;;;;;;;;;5057046;28;42548;-23
2023/06/12 13:53:22;;;;;;;15.48;6.70;;;;;;;;;;5049855;28;41414;-22
2023/06/12 13:55:52;;;;;;;8.25;6.25;;;;;;;;;;5050730;28;42701;-22
2023/06/12 13:58:20;;;;;;;6.55;5.95;;;;;;;;;;5052354;28;44386;-22
2023/06/12 14:00:48;;;;;;;7.40;6.70;;;;;;;;;;5047283;28;41103;-22
2023/06/12 14:03:16;;;;;;;7.03;6.32;;;;;;;;;;5053315;28;42068;-22
2023/06/12 14:05:44;;;;;;;8.45;6.70;;;;;;;;;;5047772;28;43621;-22
2023/06/12 14:08:12;;;;;;;7.20;6.45;;;;;;;;;;5047062;28;40292;-22
2023/06/12 14:10:41;;;;;;;7.20;6.60;;;;;;;;;;5049769;28;44369;-23
2023/06/12 14:13:10;;;;;;;7.20;6.50;;;;;;;;;;5058648;28;40130;-24
2023/06/12 14:15:40;;;;;;;7.07;6.45;;;;;;;;;;5048212;28;43205;-23
2023/06/12 14:18:10;;;;;;;7.05;6.38;;;;;;;;;;5066233;28;42896;-23
2023/06/12 14:20:38;;;;;;;11.95;7.18;;;;;;;;;;5052902;28;41335;-27
2023/06/12 14:23:06;;;;;;;11.73;7.18;;;;;;;;;;5058040;28;42641;-22
2023/06/12 14:25:34;;;;;;;11.43;6.70;;;;;;;;;;5049219;28;43496;-26
2023/06/12 14:28:02;;;;;;;7.35;6.65;;;;;;;;;;5050089;28;40709;-22
2023/06/12 14:30:31;;;;;;;8.40;6.75;;;;;;;;;;5049892;28;42739;-22
2023/06/12 14:33:00;;;;;;;7.90;7.10;;;;;;;;;;5046782;28;41251;-22
2023/06/12 14:35:28;;;;;;;7.30;6.60;;;;;;;;;;5047000;28;43718;-22
2023/06/12 14:37:56;;;;;;;8.90;6.65;;;;;;;;;;5047857;28;44473;-22
2023/06/12 14:40:24;;;;;;;7.88;7.10;;;;;;;;;;5049175;28;40498;-22
2023/06/12 14:42:52;;;;;;;6.88;6.20;;;;;;;;;;5048630;28;43216;-26
2023/06/12 14:45:21;;;;;;;8.20;6.97;;;;;;;;;;5052320;28;43465;-22
2023/06/12 14:47:52;;;;;;;7.53;6.50;;;;;;;;;;5054516;28;39712;-23
2023/06/12 14:50:21;;;;;;;7.88;7.18;;;;;;;;;;5051294;28;43272;-23
2023/06/12 14:52:48;;;;;;;7.65;6.95;;;;;;;;;;5055200;28;32520;-23